createdAt,value
2019-04-07T00:00:16.541Z,99.90
2019-04-07T00:02:44.374Z,99.90
2019-04-07T00:05:14.687Z,99.90
2019-04-07T00:07:41.538Z,99.90
2019-04-07T00:10:12.814Z,99.90
2019-04-07T00:12:41.252Z,99.90
2019-04-07T00:15:09.169Z,99.90
2019-04-07T00:17:37.482Z,99.90
2019-04-07T00:20:07.137Z,99.90
2019-04-07T00:22:35.186Z,99.90
2019-04-07T00:25:03.881Z,99.90
2019-04-07T00:27:31.921Z,99.90
2019-04-07T00:30:00.005Z,99.90
2019-04-07T00:32:27.669Z,99.90
2019-04-07T00:34:55.315Z,99.90
2019-04-07T00:37:23.018Z,99.90
2019-04-07T00:39:51.488Z,99.90
2019-04-07T00:42:19.404Z,99.90
2019-04-07T00:44:47.467Z,99.90
2019-04-07T00:47:15.306Z,99.90
2019-04-07T00:49:43.457Z,99.90
2019-04-07T00:52:12.909Z,99.90
2019-04-07T00:54:40.892Z,99.90
2019-04-07T00:57:08.618Z,99.90
2019-04-07T00:59:36.254Z,99.90
2019-04-07T01:02:03.894Z,99.90
2019-04-07T01:04:31.893Z,99.90
2019-04-07T01:07:00.199Z,99.90
2019-04-07T01:09:28.754Z,99.90
2019-04-07T01:11:56.483Z,99.90
2019-04-07T01:14:24.714Z,99.90
2019-04-07T01:16:52.927Z,99.90
2019-04-07T01:19:25.306Z,99.90
2019-04-07T01:21:53.595Z,99.90
2019-04-07T01:24:21.891Z,99.90
2019-04-07T01:26:50.160Z,99.90
2019-04-07T01:34:13.522Z,99.90
2019-04-07T01:36:41.317Z,99.90
2019-04-07T01:39:10.620Z,99.90
2019-04-07T01:41:49.555Z,99.90
2019-04-07T01:44:25.621Z,99.90
2019-04-07T01:46:55.029Z,99.90
2019-04-07T01:49:41.197Z,99.90
2019-04-07T01:52:10.861Z,99.90
2019-04-07T01:54:42.822Z,99.90
2019-04-07T01:57:28.924Z,99.90
2019-04-07T02:00:14.802Z,99.90
2019-04-07T02:02:44.475Z,99.90
2019-04-07T02:05:14.317Z,99.90
2019-04-07T02:08:15.462Z,99.90
2019-04-07T02:10:44.832Z,99.90
2019-04-07T02:13:30.479Z,99.90
2019-04-07T02:16:00.230Z,99.90
2019-04-07T02:18:46.566Z,99.90
2019-04-07T02:21:18.438Z,99.90
2019-04-07T02:23:53.652Z,99.90
2019-04-07T02:26:39.429Z,99.90
2019-04-07T02:29:25.864Z,99.90
2019-04-07T02:32:01.432Z,99.90
2019-04-07T02:34:36.851Z,99.90
2019-04-07T02:37:06.615Z,99.90
2019-04-07T02:39:40.593Z,99.90
2019-04-07T02:42:13.302Z,99.90
2019-04-07T02:44:57.631Z,99.90
2019-04-07T02:47:29.755Z,99.90
2019-04-07T02:50:15.664Z,99.90
2019-04-07T02:52:45.310Z,99.90
2019-04-07T02:55:20.196Z,99.90
2019-04-07T02:58:06.086Z,99.90
2019-04-07T03:00:37.992Z,99.90
2019-04-07T03:03:10.889Z,99.90
2019-04-07T03:05:40.530Z,99.90
2019-04-07T03:08:16.237Z,99.90
2019-04-07T03:11:02.196Z,99.90
2019-04-07T03:13:48.808Z,99.90
2019-04-07T03:16:19.407Z,99.90
2019-04-07T03:18:55.106Z,99.90
2019-04-07T03:21:31.063Z,99.90
2019-04-07T03:24:09.786Z,99.90
2019-04-07T03:26:48.266Z,99.90
2019-04-07T03:29:36.500Z,99.90
2019-04-07T03:32:07.901Z,99.90
2019-04-07T03:34:51.292Z,99.90
2019-04-07T03:37:33.307Z,99.90
2019-04-07T03:39:57.163Z,99.90
2019-04-07T03:42:32.719Z,99.90
2019-04-07T03:45:17.276Z,99.90
2019-04-07T03:47:46.884Z,99.90
2019-04-07T03:50:22.830Z,99.90
2019-04-07T03:52:52.532Z,99.90
2019-04-07T03:55:24.822Z,99.90
2019-04-07T04:00:44.152Z,99.90
2019-04-07T04:03:13.449Z,99.90
2019-04-07T04:05:43.382Z,99.90
2019-04-07T04:08:18.897Z,99.90
2019-04-07T04:10:48.497Z,99.90
2019-04-07T04:13:36.135Z,99.90
2019-04-07T04:16:06.188Z,99.90
2019-04-07T04:18:33.982Z,99.90
2019-04-07T04:21:01.674Z,99.90
2019-04-07T04:23:30.088Z,99.90
2019-04-07T04:25:57.922Z,99.90
2019-04-07T04:28:32.416Z,99.90
2019-04-07T04:31:00.062Z,99.90
2019-04-07T04:33:27.686Z,99.90
2019-04-07T04:35:55.903Z,99.90
2019-04-07T04:38:26.241Z,99.90
2019-04-07T04:40:53.950Z,99.90
2019-04-07T04:43:21.583Z,99.90
2019-04-07T04:45:50.283Z,99.90
2019-04-07T04:48:19.637Z,99.90
2019-04-07T04:50:47.452Z,99.90
2019-04-07T04:53:15.099Z,99.90
2019-04-07T04:55:43.829Z,99.90
2019-04-07T04:58:11.644Z,99.90
2019-04-07T05:00:39.269Z,99.90
2019-04-07T05:03:07.171Z,99.90
2019-04-07T05:05:35.629Z,99.90
2019-04-07T05:08:05.164Z,99.90
2019-04-07T05:10:32.942Z,99.90
2019-04-07T05:13:00.587Z,99.90
2019-04-07T05:15:28.765Z,99.90
2019-04-07T05:17:57.259Z,99.90
2019-04-07T05:20:25.218Z,99.90
2019-04-07T05:22:53.454Z,99.90
2019-04-07T05:25:21.523Z,99.90
2019-04-07T05:28:04.883Z,99.90
2019-04-07T05:30:32.563Z,99.90
2019-04-07T05:33:00.910Z,99.90
2019-04-07T05:35:28.750Z,99.90
2019-04-07T05:38:02.828Z,99.90
2019-04-07T05:40:26.748Z,99.90
2019-04-07T05:42:54.429Z,99.90
2019-04-07T05:47:50.805Z,99.90
2019-04-07T05:50:18.825Z,99.90
2019-04-07T05:52:46.619Z,99.90
2019-04-07T05:55:14.360Z,99.90
2019-04-07T05:57:42.038Z,99.90
2019-04-07T06:00:13.628Z,99.90
2019-04-07T06:02:40.674Z,99.90
2019-04-07T06:05:08.394Z,99.90
2019-04-07T06:07:37.099Z,99.90
2019-04-07T06:10:07.888Z,99.90
2019-04-07T06:12:39.283Z,99.90
2019-04-07T06:15:06.276Z,99.90
2019-04-07T06:17:34.634Z,99.90
2019-04-07T06:20:03.615Z,99.90
2019-04-07T06:22:31.495Z,99.90
2019-04-07T06:25:01.769Z,99.90
2019-04-07T06:27:29.769Z,99.90
2019-04-07T06:30:00.041Z,99.90
2019-04-07T06:32:27.239Z,99.90
2019-04-07T06:34:55.143Z,99.90
2019-04-07T06:37:25.872Z,99.90
2019-04-07T06:39:52.525Z,99.90
2019-04-07T06:44:50.323Z,99.90
2019-04-07T06:47:18.693Z,99.90
2019-04-07T06:50:05.799Z,99.90
2019-04-07T06:52:40.804Z,99.90
2019-04-07T06:55:14.713Z,99.90
2019-04-07T06:57:51.851Z,99.90
2019-04-07T07:00:30.043Z,99.90
2019-04-07T07:03:11.679Z,99.90
2019-04-07T07:06:00.197Z,99.90
2019-04-07T07:08:44.547Z,99.90
2019-04-07T07:11:24.813Z,99.90
2019-04-07T07:13:45.081Z,99.90
2019-04-07T07:16:16.028Z,99.90
2019-04-07T07:21:36.441Z,99.90
2019-04-07T07:26:33.696Z,99.90
2019-04-07T07:29:13.245Z,99.90
2019-04-07T07:31:40.271Z,99.90
2019-04-07T07:34:10.670Z,99.90
2019-04-07T07:36:38.224Z,99.90
2019-04-07T07:39:10.178Z,99.90
2019-04-07T07:41:36.571Z,99.90
2019-04-07T07:44:07.475Z,99.90
2019-04-07T07:46:34.369Z,99.90
2019-04-07T07:49:03.059Z,99.90
2019-04-07T07:51:31.367Z,99.90
2019-04-07T07:54:02.140Z,99.90
2019-04-07T07:56:30.240Z,99.90
2019-04-07T08:01:27.139Z,99.90
2019-04-07T08:03:55.723Z,99.90
2019-04-07T08:06:24.029Z,99.90
2019-04-07T08:09:09.972Z,99.90
2019-04-07T08:13:56.737Z,99.90
2019-04-07T08:18:52.108Z,99.90
2019-04-07T08:21:20.405Z,99.90
2019-04-07T08:23:49.093Z,99.90
2019-04-07T08:26:16.850Z,99.90
2019-04-07T08:28:45.055Z,99.90
2019-04-07T08:31:13.276Z,99.90
2019-04-07T08:33:41.042Z,99.90
2019-04-07T08:36:11.644Z,99.90
2019-04-07T08:38:40.077Z,99.90
2019-04-07T08:41:10.170Z,99.90
2019-04-07T08:43:37.373Z,99.90
2019-04-07T08:48:40.191Z,99.90
2019-04-07T08:51:08.585Z,99.90
2019-04-07T08:53:36.251Z,99.90
2019-04-07T08:56:06.706Z,99.90
2019-04-07T08:58:41.450Z,99.90
2019-04-07T09:01:09.737Z,99.90
2019-04-07T09:03:37.464Z,99.90
2019-04-07T09:06:05.126Z,99.90
2019-04-07T09:08:34.674Z,99.90
2019-04-07T09:11:04.581Z,99.90
2019-04-07T09:13:34.086Z,99.90
2019-04-07T09:16:17.361Z,99.90
2019-04-07T09:19:06.017Z,99.90
2019-04-07T09:21:40.009Z,99.90
2019-04-07T09:24:22.259Z,99.90
2019-04-07T09:27:03.764Z,99.90
2019-04-07T09:29:42.198Z,99.90
2019-04-07T09:32:27.909Z,99.90
2019-04-07T09:35:13.598Z,99.90
2019-04-07T09:37:54.109Z,99.90
2019-04-07T09:40:32.027Z,99.90
2019-04-07T09:43:04.174Z,99.90
2019-04-07T09:51:11.144Z,99.90
2019-04-07T09:53:41.436Z,99.90
2019-04-07T09:56:29.915Z,99.90
2019-04-07T09:59:10.077Z,99.90
2019-04-07T10:01:44.205Z,99.00
2019-04-07T10:04:18.979Z,99.40
2019-04-07T10:06:54.051Z,98.50
2019-04-07T10:10:10.081Z,96.20
2019-04-07T10:12:44.676Z,96.80
2019-04-07T10:15:29.669Z,96.50
2019-04-07T10:18:15.586Z,94.70
2019-04-07T10:20:57.660Z,94.90
2019-04-07T10:23:43.572Z,93.90
2019-04-07T10:26:15.751Z,93.20
2019-04-07T10:28:54.319Z,94.30
2019-04-07T10:31:23.630Z,90.80
2019-04-07T10:33:56.249Z,90.40
2019-04-07T10:36:42.474Z,91.10
2019-04-07T10:39:14.736Z,88.20
2019-04-07T10:42:00.188Z,84.30
2019-04-07T10:44:35.828Z,86.10
2019-04-07T10:47:21.093Z,83.80
2019-04-07T10:49:58.530Z,81.40
2019-04-07T10:52:21.539Z,81.00
2019-04-07T10:54:50.844Z,83.00
2019-04-07T10:57:26.656Z,77.20
2019-04-07T11:00:05.822Z,77.90
2019-04-07T11:02:47.941Z,75.70
2019-04-07T11:05:33.649Z,73.80
2019-04-07T11:08:06.055Z,75.70
2019-04-07T11:10:47.224Z,85.50
2019-04-07T11:13:19.463Z,76.40
2019-04-07T11:16:06.312Z,73.10
2019-04-07T11:18:36.736Z,77.40
2019-04-07T11:21:09.627Z,69.60
2019-04-07T11:23:39.208Z,70.00
2019-04-07T11:26:14.671Z,92.80
2019-04-07T11:28:44.619Z,93.20
2019-04-07T11:31:19.850Z,67.60
2019-04-07T11:34:05.521Z,59.00
2019-04-07T11:36:37.618Z,68.20
2019-04-07T11:39:26.336Z,66.20
2019-04-07T11:42:01.791Z,65.50
2019-04-07T11:44:34.042Z,59.40
2019-04-07T11:47:03.760Z,59.70
2019-04-07T11:49:43.840Z,58.40
2019-04-07T11:52:24.918Z,57.60
2019-04-07T11:55:11.976Z,58.40
2019-04-07T11:57:45.286Z,56.60
2019-04-07T12:00:26.982Z,54.60
2019-04-07T12:02:59.394Z,54.20
2019-04-07T12:05:45.081Z,54.50
2019-04-07T12:08:32.372Z,55.50
2019-04-07T12:11:15.688Z,58.00
2019-04-07T12:13:45.115Z,56.60
2019-04-07T12:16:14.558Z,57.20
2019-04-07T12:18:59.055Z,54.80
2019-04-07T12:21:28.587Z,54.30
2019-04-07T12:24:01.541Z,54.40
2019-04-07T12:26:31.465Z,52.60
2019-04-07T12:31:49.682Z,53.90
2019-04-07T12:34:19.033Z,51.80
2019-04-07T12:37:02.455Z,52.60
2019-04-07T12:41:59.426Z,49.80
2019-04-07T12:44:35.424Z,52.40
2019-04-07T12:47:11.341Z,53.00
2019-04-07T12:49:57.382Z,51.80
2019-04-07T12:52:29.766Z,50.40
2019-04-07T12:57:45.835Z,50.30
2019-04-07T13:00:16.728Z,53.00
2019-04-07T13:02:54.374Z,50.90
2019-04-07T13:05:25.897Z,53.90
2019-04-07T13:08:01.569Z,51.70
2019-04-07T13:10:43.039Z,52.40
2019-04-07T13:13:30.571Z,52.70
2019-04-07T13:16:17.647Z,54.80
2019-04-07T13:18:54.295Z,53.80
2019-04-07T13:21:37.087Z,55.60
2019-04-07T13:24:30.332Z,56.50
2019-04-07T13:29:40.118Z,57.70
2019-04-07T13:32:12.115Z,59.10
2019-04-07T13:34:57.903Z,61.00
2019-04-07T13:37:27.200Z,58.10
2019-04-07T13:40:14.298Z,57.10
2019-04-07T13:42:44.469Z,57.20
2019-04-07T13:50:31.923Z,56.50
2019-04-07T13:53:02.375Z,54.40
2019-04-07T13:55:41.778Z,56.20
2019-04-07T13:58:31.041Z,55.60
2019-04-07T14:01:13.782Z,55.60
2019-04-07T14:04:01.343Z,57.80
2019-04-07T14:06:46.811Z,57.10
2019-04-07T14:09:21.190Z,56.40
2019-04-07T14:12:03.135Z,54.00
2019-04-07T14:14:33.007Z,52.30
2019-04-07T14:17:06.179Z,52.60
2019-04-07T14:19:43.366Z,51.70
2019-04-07T14:22:15.581Z,53.70
2019-04-07T14:24:51.577Z,54.70
2019-04-07T14:27:26.719Z,55.20
2019-04-07T14:30:11.396Z,56.10
2019-04-07T14:32:57.887Z,57.00
2019-04-07T14:35:36.863Z,58.30
2019-04-07T14:40:52.716Z,59.30
2019-04-07T14:43:37.505Z,59.20
2019-04-07T14:46:07.161Z,58.50
2019-04-07T14:48:55.187Z,57.40
2019-04-07T14:51:33.973Z,58.10
2019-04-07T14:54:20.380Z,58.70
2019-04-07T14:57:02.133Z,58.50
2019-04-07T14:59:45.390Z,58.60
2019-04-07T15:02:15.478Z,56.80
2019-04-07T15:04:47.774Z,56.30
2019-04-07T15:07:17.288Z,55.70
2019-04-07T15:09:46.971Z,55.60
2019-04-07T15:12:22.763Z,55.10
2019-04-07T15:14:45.960Z,54.10
2019-04-07T15:19:43.047Z,52.90
2019-04-07T15:22:10.696Z,51.00
2019-04-07T15:24:39.487Z,50.10
2019-04-07T15:27:08.001Z,48.50
2019-04-07T15:29:42.487Z,50.20
2019-04-07T15:32:08.363Z,52.90
2019-04-07T15:34:39.547Z,53.50
2019-04-07T15:37:05.374Z,55.60
2019-04-07T15:39:33.023Z,56.10
2019-04-07T15:42:00.945Z,57.80
2019-04-07T15:44:29.098Z,58.70
2019-04-07T15:46:57.489Z,58.70
2019-04-07T15:49:27.985Z,59.30
2019-04-07T15:51:55.159Z,59.70
2019-04-07T15:54:24.224Z,61.20
2019-04-07T15:56:52.833Z,61.80
2019-04-07T15:59:22.653Z,62.80
2019-04-07T16:01:50.413Z,64.10
2019-04-07T16:04:21.270Z,64.40
2019-04-07T16:06:50.227Z,64.60
2019-04-07T16:09:35.961Z,64.60
2019-04-07T16:11:58.856Z,65.80
2019-04-07T16:16:54.781Z,66.90
2019-04-07T16:19:37.395Z,68.00
2019-04-07T16:21:57.750Z,67.90
2019-04-07T16:24:25.790Z,67.90
2019-04-07T16:26:53.556Z,67.80
2019-04-07T16:31:55.794Z,69.20
2019-04-07T16:34:22.860Z,70.50
2019-04-07T16:36:51.906Z,70.50
2019-04-07T16:39:29.131Z,71.30
2019-04-07T16:41:56.460Z,72.60
2019-04-07T16:44:24.526Z,72.70
2019-04-07T16:46:56.441Z,73.00
2019-04-07T16:49:21.712Z,74.30
2019-04-07T16:51:49.440Z,73.70
2019-04-07T16:54:17.137Z,74.70
2019-04-07T16:56:45.499Z,75.30
2019-04-07T16:59:14.339Z,75.80
2019-04-07T17:01:42.357Z,76.20
2019-04-07T17:06:37.921Z,76.20
2019-04-07T17:09:08.723Z,76.30
2019-04-07T17:14:05.546Z,99.90
2019-04-07T17:16:33.428Z,78.10
2019-04-07T17:19:02.074Z,78.90
2019-04-07T17:23:58.133Z,99.90
2019-04-07T17:31:27.511Z,80.60
2019-04-07T17:33:55.103Z,81.80
2019-04-07T17:36:23.932Z,83.00
2019-04-07T17:41:39.155Z,84.10
2019-04-07T17:44:26.576Z,85.90
2019-04-07T17:47:08.411Z,86.90
2019-04-07T17:49:38.766Z,87.60
2019-04-07T17:52:11.255Z,88.20
2019-04-07T17:54:54.363Z,88.40
2019-04-07T17:57:41.783Z,89.10
2019-04-07T18:00:18.562Z,89.80
2019-04-07T18:03:05.305Z,90.00
2019-04-07T18:05:37.592Z,90.10
2019-04-07T18:08:17.797Z,90.20
2019-04-07T18:11:00.092Z,90.60
2019-04-07T18:13:49.341Z,90.90
2019-04-07T18:16:22.457Z,91.30
2019-04-07T18:19:08.683Z,92.00
2019-04-07T18:21:55.069Z,92.60
2019-04-07T18:24:30.859Z,93.40
2019-04-07T18:29:32.930Z,94.60
2019-04-07T18:32:02.295Z,94.40
2019-04-07T18:37:07.209Z,94.50
2019-04-07T18:39:56.506Z,97.20
2019-04-07T18:42:42.608Z,95.00
2019-04-07T18:45:28.717Z,95.70
2019-04-07T18:48:16.752Z,96.50
2019-04-07T18:50:55.131Z,97.00
2019-04-07T18:53:27.564Z,97.60
2019-04-07T18:55:58.162Z,99.90
2019-04-07T18:58:50.803Z,99.90
2019-04-07T19:01:25.350Z,99.90
2019-04-07T19:04:04.468Z,99.90
2019-04-07T19:06:36.502Z,99.90
2019-04-07T19:09:06.906Z,99.90
2019-04-07T19:11:37.175Z,99.90
2019-04-07T19:14:35.737Z,99.90
2019-04-07T19:17:02.849Z,99.90
2019-04-07T19:22:29.028Z,99.90
2019-04-07T19:25:15.748Z,99.90
2019-04-07T19:30:43.705Z,99.90
2019-04-07T19:33:28.398Z,99.90
2019-04-07T19:36:10.256Z,99.90
2019-04-07T19:39:05.657Z,99.90
2019-04-07T19:41:47.167Z,99.90
2019-04-07T19:44:33.932Z,99.90
2019-04-07T19:46:59.356Z,99.90
2019-04-07T19:49:47.640Z,99.90
2019-04-07T19:52:37.595Z,99.90
2019-04-07T19:55:10.010Z,99.90
2019-04-07T20:00:32.688Z,99.90
2019-04-07T20:03:11.392Z,99.90
2019-04-07T20:05:41.651Z,99.90
2019-04-07T20:08:14.239Z,99.90
2019-04-07T20:10:43.551Z,99.90
2019-04-07T20:13:24.860Z,99.90
2019-04-07T20:19:00.515Z,99.90
2019-04-07T20:21:38.232Z,99.90
2019-04-07T20:24:07.408Z,99.90
2019-04-07T20:26:45.997Z,99.90
2019-04-07T20:29:33.872Z,99.90
2019-04-07T20:32:08.277Z,99.90
2019-04-07T20:34:41.681Z,99.90
2019-04-07T20:37:17.234Z,99.90
2019-04-07T20:39:53.233Z,99.90
2019-04-07T20:42:29.003Z,99.90
2019-04-07T20:45:14.219Z,99.90
2019-04-07T20:47:53.361Z,99.90
2019-04-07T20:50:35.488Z,99.90
2019-04-07T20:53:14.588Z,99.90
2019-04-07T20:55:39.966Z,99.90
2019-04-07T20:58:21.169Z,99.90
2019-04-07T21:01:04.628Z,99.90
2019-04-07T21:03:51.930Z,99.90
2019-04-07T21:06:37.870Z,99.90
2019-04-07T21:09:15.262Z,99.90
2019-04-07T21:11:47.329Z,99.90
2019-04-07T21:14:16.338Z,99.90
2019-04-07T21:17:02.690Z,99.90
2019-04-07T21:22:05.579Z,99.90
2019-04-07T21:24:49.700Z,99.90
2019-04-07T21:27:36.073Z,99.90
2019-04-07T21:30:06.870Z,99.90
2019-04-07T21:32:53.811Z,99.90
2019-04-07T21:35:26.244Z,99.90
2019-04-07T21:37:58.483Z,99.90
2019-04-07T21:40:39.528Z,99.90
2019-04-07T21:43:25.842Z,99.90
2019-04-07T21:45:54.753Z,99.90
2019-04-07T21:48:32.626Z,99.90
2019-04-07T21:51:04.496Z,99.90
2019-04-07T21:53:34.623Z,99.90
2019-04-07T21:56:11.350Z,99.90
2019-04-07T21:58:41.938Z,99.90
2019-04-07T22:01:17.391Z,99.90
2019-04-07T22:03:52.594Z,99.90
2019-04-07T22:06:29.481Z,99.90
2019-04-07T22:09:17.136Z,99.90
2019-04-07T22:11:45.927Z,99.90
2019-04-07T22:14:14.511Z,99.90
2019-04-07T22:16:42.837Z,99.90
2019-04-07T22:19:13.567Z,99.90
2019-04-07T22:21:40.417Z,99.90
2019-04-07T22:24:08.922Z,99.90
2019-04-07T22:26:37.071Z,99.90
2019-04-07T22:29:11.819Z,99.90
2019-04-07T22:31:45.599Z,99.90
2019-04-07T22:34:14.874Z,99.90
2019-04-07T22:36:45.453Z,99.90
2019-04-07T22:39:12.907Z,99.90
2019-04-07T22:41:42.006Z,99.90
2019-04-07T22:44:10.207Z,99.90
2019-04-07T22:46:37.874Z,99.90
2019-04-07T22:49:05.505Z,99.90
2019-04-07T22:51:33.154Z,99.90
2019-04-07T22:54:01.535Z,99.90
2019-04-07T22:56:29.852Z,99.90
2019-04-07T22:59:01.579Z,99.90
2019-04-07T23:01:29.371Z,99.90
2019-04-07T23:03:58.012Z,99.90
2019-04-07T23:06:26.622Z,99.90
2019-04-07T23:08:57.351Z,99.90
2019-04-07T23:11:25.789Z,99.90
2019-04-07T23:13:53.561Z,99.90
2019-04-07T23:16:21.862Z,99.90
2019-04-07T23:18:49.972Z,99.90
2019-04-07T23:21:17.722Z,99.90
2019-04-07T23:23:46.175Z,99.90
2019-04-07T23:26:13.925Z,99.90
2019-04-07T23:28:58.690Z,99.90
2019-04-07T23:31:27.002Z,99.90
2019-04-07T23:33:55.430Z,99.90
2019-04-07T23:36:23.062Z,99.90
2019-04-07T23:38:51.661Z,99.90
2019-04-07T23:41:20.182Z,99.90
2019-04-07T23:43:47.843Z,99.90
2019-04-07T23:46:23.925Z,99.90
2019-04-07T23:48:54.018Z,99.90
2019-04-07T23:51:21.738Z,99.90
2019-04-07T23:54:07.663Z,99.90
2019-04-07T23:56:36.628Z,99.90
2019-04-07T23:59:12.596Z,99.90
